Jeju International Airport
RKPC : now visible

Airfield :











YOU CAN JOIN US ON...

 
LOGIN :

Register | Disclaimer

   EN    FR    IT 

 









Legend :    VFR   Marginal VFR   IFR   Intensive IFR   Very Intensive IFR
Visi :
Ceiling :
>= 8 km
>= 3000ft
5 to 8 km
1000 to 3000 ft
1500m to 5 km
500 to 1000 ft
800 to 1500m
200 to 500 ft
< 800m
< 200 ft
Symbols :   Thunderstorms  Fog  Heavy snow  Heavy precipitations  Wind > 20 kt






- Airport Elevation : 118 ft
- IATA code : CJU


RKPC - Jeju International

CURRENT METAR :
  • 261500Z 09021KT 5000 RA BR FEW015 BKN025 OVC060 11/08 Q1018 WS ALL RWY NOSIG

EXPIRED METARs :
  • 261400Z 09021KT 6000 2800SW RA SCT015 BKN025 OVC060 11/09 Q1018 WS ALL RWY NOSIG
  • 261326Z 26SPECI
  • 261300Z 09024KT 5000 2300SW -RA BR SCT015 BKN025 OVC070 11/08 Q1018 WS ALL RWY NOSIG

TAF TAF RKPC
Valid from the 26 at 12:00 until the 27 at 18:00 UTC


261100Z 2612/2718 09025G35KT 6000 -RA FEW010 BKN030 OVC080 TN10/2620Z TX12/2704Z
BECMG 2617/2618 06025G45KT 4200 RA
BECMG 2700/2701 03020G35KT
BECMG 2708/2709 6000 -RA
BECMG 2712/2713 03015G25KT



MET'MAP, your aeronautical weather chart ! - Copyright ORBIFLY December 2007 - Disclaimer

ORBIFLY MET'MAP TEAM :

Programming & Development : Alexandra Zaïnal
Concept & original design : Baudouin d'Aumeries
Assistance for programming : Marc-Olivier Méhu
Technical & hardware support : Manuel Goepfert

Contact : metmap@orbifly.com




SOURCES & CREDITS :

   NOAA       Earth
Advisory